Date,TemperatureHighF,TemperatureAvgF,TemperatureLowF,DewpointHighF,DewpointAvgF,DewpointLowF,HumidityHigh,HumidityAvg,HumidityLow,PressureMaxIn,PressureMinIn,WindSpeedMaxMPH,WindSpeedAvgMPH,GustSpeedMaxMPH,PrecipitationSumIn
2013-2-1,45,36,33,-100,-100,-100,0,0,100,0.00,40.00,0,-999,0,0.01
2013-2-2,38,34,31,-100,-100,-100,0,0,100,0.00,40.00,0,-999,0,0.00
2013-2-3,38,34,31,-100,-100,-100,0,0,100,0.00,40.00,0,-999,0,0.00
2013-2-4,35,34,32,-100,-100,-100,0,0,100,0.00,40.00,0,-999,0,0.01
2013-2-5,36,34,32,-100,-100,-100,0,0,100,0.00,40.00,0,-999,0,0.02
2013-2-6,36,33,31,-100,-100,-100,0,0,100,0.00,40.00,0,-999,0,0.03
2013-2-7,34,30,25,-100,-100,-100,0,0,100,0.00,40.00,0,-999,0,0.01
2013-2-8,28,26,23,-100,-100,-100,0,0,100,0.00,40.00,0,-999,0,0.01
2013-2-9,32,29,27,-100,-100,-100,0,0,100,0.00,40.00,0,-999,0,0.01
2013-2-10,39,29,24,-100,-100,-100,0,0,100,0.00,40.00,0,-999,0,0.00
2013-2-11,32,30,27,-100,-100,-100,0,0,100,0.00,40.00,0,-999,0,0.00
2013-2-12,37,34,31,-100,-100,-100,0,0,100,0.00,40.00,0,-999,0,0.01
2013-2-13,36,34,32,-100,-100,-100,0,0,100,0.00,40.00,0,-999,0,0.02
2013-2-14,36,33,31,-100,-100,-100,0,0,100,0.00,40.00,0,-999,0,0.00
2013-2-15,44,36,33,-100,-100,-100,0,0,100,0.00,40.00,0,-999,0,0.00
2013-2-16,37,34,31,-100,-100,-100,0,0,100,0.00,40.00,0,-999,0,0.02
2013-2-17,36,30,23,-100,-100,-100,0,0,100,0.00,40.00,0,-999,0,0.02
2013-2-18,30,26,22,-100,-100,-100,0,0,100,0.00,40.00,0,-999,0,0.01
2013-2-19,35,27,24,-100,-100,-100,0,0,100,0.00,40.00,0,-999,0,0.00
2013-2-20,33,29,24,-100,-100,-100,0,0,100,0.00,40.00,0,-999,0,0.00
2013-2-21,31,30,27,-100,-100,-100,0,0,100,0.00,40.00,0,-999,0,0.02
2013-2-22,34,31,27,-100,-100,-100,0,0,100,0.00,40.00,0,-999,0,0.06
2013-2-23,31,29,27,-100,-100,-100,0,0,100,0.00,40.00,0,-999,0,0.04
2013-2-24,35,30,28,-100,-100,-100,0,0,100,0.00,40.00,0,-999,0,0.03
2013-2-25,31,30,28,-100,-100,-100,0,0,100,0.00,40.00,0,-999,0,0.03
2013-2-26,36,29,26,-100,-100,-100,0,0,100,0.00,40.00,0,-999,0,0.01
2013-2-27,37,32,29,-100,-100,-100,0,0,100,0.00,40.00,0,-999,0,0.02
2013-2-28,39,34,32,-100,-100,-100,0,0,100,0.00,40.00,0,-999,0,0.04